sensor_id;sensor_type;location;lat;lon;timestamp;temperature;humidity
9730;DHT22;4904;49.152;11.004;2023-06-22T00:00:48;19.10;99.90
9730;DHT22;4904;49.152;11.004;2023-06-22T00:03:15;19.20;99.90
9730;DHT22;4904;49.152;11.004;2023-06-22T00:05:42;19.00;99.90
9730;DHT22;4904;49.152;11.004;2023-06-22T00:08:09;18.90;99.90
9730;DHT22;4904;49.152;11.004;2023-06-22T00:10:36;18.80;99.90
9730;DHT22;4904;49.152;11.004;2023-06-22T00:13:03;18.80;99.90
9730;DHT22;4904;49.152;11.004;2023-06-22T00:15:31;18.70;99.90
9730;DHT22;4904;49.152;11.004;2023-06-22T00:17:58;18.70;99.90
9730;DHT22;4904;49.152;11.004;2023-06-22T00:20:26;18.70;99.90
9730;DHT22;4904;49.152;11.004;2023-06-22T00:22:54;18.70;99.90
9730;DHT22;4904;49.152;11.004;2023-06-22T00:25:21;18.70;99.90
9730;DHT22;4904;49.152;11.004;2023-06-22T00:27:49;18.70;99.90
9730;DHT22;4904;49.152;11.004;2023-06-22T00:30:16;18.70;99.90
9730;DHT22;4904;49.152;11.004;2023-06-22T00:32:45;18.70;99.90
9730;DHT22;4904;49.152;11.004;2023-06-22T00:35:12;18.80;99.90
9730;DHT22;4904;49.152;11.004;2023-06-22T00:37:39;18.90;99.90
9730;DHT22;4904;49.152;11.004;2023-06-22T00:40:08;18.90;99.90
9730;DHT22;4904;49.152;11.004;2023-06-22T00:42:37;19.00;99.90
9730;DHT22;4904;49.152;11.004;2023-06-22T00:45:05;19.10;99.90
9730;DHT22;4904;49.152;11.004;2023-06-22T00:47:34;19.10;99.90
9730;DHT22;4904;49.152;11.004;2023-06-22T00:50:03;19.20;99.90
9730;DHT22;4904;49.152;11.004;2023-06-22T00:52:33;19.00;99.90
9730;DHT22;4904;49.152;11.004;2023-06-22T00:55:01;19.00;99.90
9730;DHT22;4904;49.152;11.004;2023-06-22T00:57:29;18.90;99.90
9730;DHT22;4904;49.152;11.004;2023-06-22T00:59:56;18.80;99.90
9730;DHT22;4904;49.152;11.004;2023-06-22T01:02:23;18.80;99.90
9730;DHT22;4904;49.152;11.004;2023-06-22T01:04:49;18.80;99.90
9730;DHT22;4904;49.152;11.004;2023-06-22T01:07:23;18.60;99.90
9730;DHT22;4904;49.152;11.004;2023-06-22T01:09:57;18.40;99.90
9730;DHT22;4904;49.152;11.004;2023-06-22T01:12:26;18.40;99.90
9730;DHT22;4904;49.152;11.004;2023-06-22T01:15:02;18.50;99.90
9730;DHT22;4904;49.152;11.004;2023-06-22T01:17:32;18.40;99.90
9730;DHT22;4904;49.152;11.004;2023-06-22T01:20:00;18.50;99.90
9730;DHT22;4904;49.152;11.004;2023-06-22T01:22:40;18.60;99.90
9730;DHT22;4904;49.152;11.004;2023-06-22T01:25:13;18.70;99.90
9730;DHT22;4904;49.152;11.004;2023-06-22T01:27:56;18.70;99.90
9730;DHT22;4904;49.152;11.004;2023-06-22T01:30:28;18.70;99.90
9730;DHT22;4904;49.152;11.004;2023-06-22T01:32:59;18.70;99.90
9730;DHT22;4904;49.152;11.004;2023-06-22T01:35:27;18.80;99.90
9730;DHT22;4904;49.152;11.004;2023-06-22T01:37:56;18.80;99.90
9730;DHT22;4904;49.152;11.004;2023-06-22T01:40:23;18.70;99.90
9730;DHT22;4904;49.152;11.004;2023-06-22T01:42:51;18.70;99.90
9730;DHT22;4904;49.152;11.004;2023-06-22T01:45:19;18.70;99.90
9730;DHT22;4904;49.152;11.004;2023-06-22T01:47:47;18.70;99.90
9730;DHT22;4904;49.152;11.004;2023-06-22T01:50:15;18.50;99.90
9730;DHT22;4904;49.152;11.004;2023-06-22T01:52:42;18.60;99.90
9730;DHT22;4904;49.152;11.004;2023-06-22T01:55:08;18.50;99.90
9730;DHT22;4904;49.152;11.004;2023-06-22T01:57:35;18.50;99.90
9730;DHT22;4904;49.152;11.004;2023-06-22T02:00:05;18.40;99.90
9730;DHT22;4904;49.152;11.004;2023-06-22T02:02:39;18.20;99.90
9730;DHT22;4904;49.152;11.004;2023-06-22T02:05:10;18.10;99.90
9730;DHT22;4904;49.152;11.004;2023-06-22T02:07:41;18.00;99.90
9730;DHT22;4904;49.152;11.004;2023-06-22T02:10:12;17.90;99.90
9730;DHT22;4904;49.152;11.004;2023-06-22T02:12:41;18.00;99.90
9730;DHT22;4904;49.152;11.004;2023-06-22T02:15:09;17.90;99.90
9730;DHT22;4904;49.152;11.004;2023-06-22T02:17:38;18.00;99.90
9730;DHT22;4904;49.152;11.004;2023-06-22T02:20:06;18.00;99.90
9730;DHT22;4904;49.152;11.004;2023-06-22T02:22:35;18.00;99.90
9730;DHT22;4904;49.152;11.004;2023-06-22T02:25:02;18.00;99.90
9730;DHT22;4904;49.152;11.004;2023-06-22T02:27:29;17.80;99.90
9730;DHT22;4904;49.152;11.004;2023-06-22T02:29:56;17.70;99.90
9730;DHT22;4904;49.152;11.004;2023-06-22T02:32:23;17.70;99.90
9730;DHT22;4904;49.152;11.004;2023-06-22T02:34:50;17.80;99.90
9730;DHT22;4904;49.152;11.004;2023-06-22T02:37:17;17.70;99.90
9730;DHT22;4904;49.152;11.004;2023-06-22T02:39:45;17.70;99.90
9730;DHT22;4904;49.152;11.004;2023-06-22T02:42:12;17.80;99.90
9730;DHT22;4904;49.152;11.004;2023-06-22T02:44:40;17.80;99.90
9730;DHT22;4904;49.152;11.004;2023-06-22T02:47:07;17.80;99.90
9730;DHT22;4904;49.152;11.004;2023-06-22T02:49:34;17.70;99.90
9730;DHT22;4904;49.152;11.004;2023-06-22T02:52:01;17.70;99.90
9730;DHT22;4904;49.152;11.004;2023-06-22T02:54:28;17.90;99.90
9730;DHT22;4904;49.152;11.004;2023-06-22T02:56:57;18.00;99.90
9730;DHT22;4904;49.152;11.004;2023-06-22T02:59:23;17.90;99.90
9730;DHT22;4904;49.152;11.004;2023-06-22T03:01:50;17.90;99.90
9730;DHT22;4904;49.152;11.004;2023-06-22T03:04:18;17.90;99.90
9730;DHT22;4904;49.152;11.004;2023-06-22T03:06:45;17.80;99.90
9730;DHT22;4904;49.152;11.004;2023-06-22T03:09:17;17.80;99.90
9730;DHT22;4904;49.152;11.004;2023-06-22T03:11:43;17.70;99.90
9730;DHT22;4904;49.152;11.004;2023-06-22T03:14:12;17.70;99.90
9730;DHT22;4904;49.152;11.004;2023-06-22T03:16:39;17.80;99.90
9730;DHT22;4904;49.152;11.004;2023-06-22T03:19:06;17.70;99.90
9730;DHT22;4904;49.152;11.004;2023-06-22T03:21:33;17.60;99.90
9730;DHT22;4904;49.152;11.004;2023-06-22T03:24:00;17.60;99.90
9730;DHT22;4904;49.152;11.004;2023-06-22T03:26:26;17.70;99.90
9730;DHT22;4904;49.152;11.004;2023-06-22T03:28:53;17.70;99.90
9730;DHT22;4904;49.152;11.004;2023-06-22T03:31:23;17.70;99.90
9730;DHT22;4904;49.152;11.004;2023-06-22T03:33:50;17.80;99.90
9730;DHT22;4904;49.152;11.004;2023-06-22T03:36:18;17.80;99.90
9730;DHT22;4904;49.152;11.004;2023-06-22T03:38:45;17.90;99.90
9730;DHT22;4904;49.152;11.004;2023-06-22T03:41:12;18.00;99.90
9730;DHT22;4904;49.152;11.004;2023-06-22T03:43:39;18.00;99.90
9730;DHT22;4904;49.152;11.004;2023-06-22T03:46:06;18.00;99.90
9730;DHT22;4904;49.152;11.004;2023-06-22T03:48:34;18.10;99.90
9730;DHT22;4904;49.152;11.004;2023-06-22T03:51:02;18.00;99.90
9730;DHT22;4904;49.152;11.004;2023-06-22T03:53:29;18.10;99.90
9730;DHT22;4904;49.152;11.004;2023-06-22T03:55:56;18.10;99.90
9730;DHT22;4904;49.152;11.004;2023-06-22T03:58:23;18.10;99.90
9730;DHT22;4904;49.152;11.004;2023-06-22T04:00:52;18.10;99.90
9730;DHT22;4904;49.152;11.004;2023-06-22T04:03:20;18.20;99.90
9730;DHT22;4904;49.152;11.004;2023-06-22T04:05:48;18.20;99.90
9730;DHT22;4904;49.152;11.004;2023-06-22T04:08:15;18.30;99.90
9730;DHT22;4904;49.152;11.004;2023-06-22T04:10:42;18.30;99.90
9730;DHT22;4904;49.152;11.004;2023-06-22T04:13:10;18.30;99.90
9730;DHT22;4904;49.152;11.004;2023-06-22T04:15:37;18.30;99.90
9730;DHT22;4904;49.152;11.004;2023-06-22T04:18:04;18.40;99.90
9730;DHT22;4904;49.152;11.004;2023-06-22T04:20:31;18.40;99.90
9730;DHT22;4904;49.152;11.004;2023-06-22T04:23:00;18.40;99.90
9730;DHT22;4904;49.152;11.004;2023-06-22T04:25:27;18.40;99.90
9730;DHT22;4904;49.152;11.004;2023-06-22T04:27:53;18.40;99.90
9730;DHT22;4904;49.152;11.004;2023-06-22T04:30:20;18.40;99.90
9730;DHT22;4904;49.152;11.004;2023-06-22T04:32:47;18.50;99.90
9730;DHT22;4904;49.152;11.004;2023-06-22T04:35:21;18.50;99.90
9730;DHT22;4904;49.152;11.004;2023-06-22T04:37:48;18.50;99.90
9730;DHT22;4904;49.152;11.004;2023-06-22T04:40:21;18.50;99.90
9730;DHT22;4904;49.152;11.004;2023-06-22T04:42:48;18.60;99.90
9730;DHT22;4904;49.152;11.004;2023-06-22T04:45:19;18.60;99.90
9730;DHT22;4904;49.152;11.004;2023-06-22T04:47:46;18.60;99.90
9730;DHT22;4904;49.152;11.004;2023-06-22T04:50:13;18.60;99.90
9730;DHT22;4904;49.152;11.004;2023-06-22T04:52:41;18.70;99.90
9730;DHT22;4904;49.152;11.004;2023-06-22T04:55:08;18.60;99.90
9730;DHT22;4904;49.152;11.004;2023-06-22T04:57:36;18.60;99.90
9730;DHT22;4904;49.152;11.004;2023-06-22T05:00:06;18.60;99.90
9730;DHT22;4904;49.152;11.004;2023-06-22T05:02:43;18.60;99.90
9730;DHT22;4904;49.152;11.004;2023-06-22T05:05:10;18.60;99.90
9730;DHT22;4904;49.152;11.004;2023-06-22T05:07:40;18.50;99.90
9730;DHT22;4904;49.152;11.004;2023-06-22T05:10:10;18.50;99.90
9730;DHT22;4904;49.152;11.004;2023-06-22T05:12:39;18.50;99.90
9730;DHT22;4904;49.152;11.004;2023-06-22T05:15:08;18.40;99.90
9730;DHT22;4904;49.152;11.004;2023-06-22T05:17:36;18.50;99.90
9730;DHT22;4904;49.152;11.004;2023-06-22T05:20:09;18.50;99.90
9730;DHT22;4904;49.152;11.004;2023-06-22T05:22:36;18.60;99.90
9730;DHT22;4904;49.152;11.004;2023-06-22T05:25:03;18.70;99.90
9730;DHT22;4904;49.152;11.004;2023-06-22T05:27:30;18.80;99.90
9730;DHT22;4904;49.152;11.004;2023-06-22T05:29:58;18.90;99.90
9730;DHT22;4904;49.152;11.004;2023-06-22T05:32:25;18.90;99.90
9730;DHT22;4904;49.152;11.004;2023-06-22T05:34:52;18.90;99.90
9730;DHT22;4904;49.152;11.004;2023-06-22T05:37:19;18.90;99.90
9730;DHT22;4904;49.152;11.004;2023-06-22T05:39:47;18.90;99.90
9730;DHT22;4904;49.152;11.004;2023-06-22T05:42:13;19.00;99.90
9730;DHT22;4904;49.152;11.004;2023-06-22T05:44:40;19.00;99.90
9730;DHT22;4904;49.152;11.004;2023-06-22T05:47:09;19.10;99.90
9730;DHT22;4904;49.152;11.004;2023-06-22T05:49:36;19.30;99.90
9730;DHT22;4904;49.152;11.004;2023-06-22T05:52:03;19.30;99.90
9730;DHT22;4904;49.152;11.004;2023-06-22T05:54:31;19.40;99.90
9730;DHT22;4904;49.152;11.004;2023-06-22T05:56:57;19.50;99.90
9730;DHT22;4904;49.152;11.004;2023-06-22T05:59:24;19.50;99.90
9730;DHT22;4904;49.152;11.004;2023-06-22T06:01:51;19.60;99.90
9730;DHT22;4904;49.152;11.004;2023-06-22T06:04:19;19.70;99.90
9730;DHT22;4904;49.152;11.004;2023-06-22T06:06:46;19.80;99.90
9730;DHT22;4904;49.152;11.004;2023-06-22T06:09:13;20.00;99.90
9730;DHT22;4904;49.152;11.004;2023-06-22T06:11:40;20.10;99.90
9730;DHT22;4904;49.152;11.004;2023-06-22T06:14:07;20.10;99.90
9730;DHT22;4904;49.152;11.004;2023-06-22T06:16:34;20.20;99.90
9730;DHT22;4904;49.152;11.004;2023-06-22T06:19:01;20.20;99.90
9730;DHT22;4904;49.152;11.004;2023-06-22T06:21:30;20.30;99.90
9730;DHT22;4904;49.152;11.004;2023-06-22T06:23:57;20.50;99.90
9730;DHT22;4904;49.152;11.004;2023-06-22T06:26:24;20.60;99.90
9730;DHT22;4904;49.152;11.004;2023-06-22T06:28:55;20.60;99.90
9730;DHT22;4904;49.152;11.004;2023-06-22T06:31:22;20.70;99.90
9730;DHT22;4904;49.152;11.004;2023-06-22T06:33:49;20.80;99.90
9730;DHT22;4904;49.152;11.004;2023-06-22T06:36:16;20.90;99.90
9730;DHT22;4904;49.152;11.004;2023-06-22T06:38:44;21.00;99.90
9730;DHT22;4904;49.152;11.004;2023-06-22T06:41:12;21.10;99.90
9730;DHT22;4904;49.152;11.004;2023-06-22T06:43:39;21.20;99.90
9730;DHT22;4904;49.152;11.004;2023-06-22T06:46:08;21.20;99.90
9730;DHT22;4904;49.152;11.004;2023-06-22T06:48:35;21.30;99.90
9730;DHT22;4904;49.152;11.004;2023-06-22T06:51:02;21.40;99.90
9730;DHT22;4904;49.152;11.004;2023-06-22T06:53:29;21.60;99.90
9730;DHT22;4904;49.152;11.004;2023-06-22T06:55:57;21.60;99.90
9730;DHT22;4904;49.152;11.004;2023-06-22T06:58:24;21.70;99.90
9730;DHT22;4904;49.152;11.004;2023-06-22T07:00:51;21.80;99.90
9730;DHT22;4904;49.152;11.004;2023-06-22T07:03:18;21.90;99.90
9730;DHT22;4904;49.152;11.004;2023-06-22T07:05:45;22.00;99.90
9730;DHT22;4904;49.152;11.004;2023-06-22T07:08:12;22.10;99.90
9730;DHT22;4904;49.152;11.004;2023-06-22T07:10:39;22.30;99.90
9730;DHT22;4904;49.152;11.004;2023-06-22T07:13:07;22.30;99.90
9730;DHT22;4904;49.152;11.004;2023-06-22T07:15:34;22.40;99.90
9730;DHT22;4904;49.152;11.004;2023-06-22T07:18:01;22.60;99.90
9730;DHT22;4904;49.152;11.004;2023-06-22T07:20:28;22.70;99.90
9730;DHT22;4904;49.152;11.004;2023-06-22T07:22:55;22.80;99.90
9730;DHT22;4904;49.152;11.004;2023-06-22T07:25:22;23.00;99.90
9730;DHT22;4904;49.152;11.004;2023-06-22T07:27:58;23.10;99.90
9730;DHT22;4904;49.152;11.004;2023-06-22T07:30:26;23.20;99.90
9730;DHT22;4904;49.152;11.004;2023-06-22T07:32:53;23.30;99.90
9730;DHT22;4904;49.152;11.004;2023-06-22T07:35:20;23.40;99.90
9730;DHT22;4904;49.152;11.004;2023-06-22T07:37:47;23.50;99.90
9730;DHT22;4904;49.152;11.004;2023-06-22T07:40:14;23.60;99.90
9730;DHT22;4904;49.152;11.004;2023-06-22T07:42:41;23.70;99.90
9730;DHT22;4904;49.152;11.004;2023-06-22T07:45:08;23.90;99.90
9730;DHT22;4904;49.152;11.004;2023-06-22T07:47:37;24.00;99.90
9730;DHT22;4904;49.152;11.004;2023-06-22T07:50:04;24.10;99.90
9730;DHT22;4904;49.152;11.004;2023-06-22T07:52:32;24.20;99.90
9730;DHT22;4904;49.152;11.004;2023-06-22T07:54:59;24.30;99.90
9730;DHT22;4904;49.152;11.004;2023-06-22T07:57:26;24.40;99.90
9730;DHT22;4904;49.152;11.004;2023-06-22T07:59:59;24.50;99.90
9730;DHT22;4904;49.152;11.004;2023-06-22T08:02:26;24.60;99.90
9730;DHT22;4904;49.152;11.004;2023-06-22T08:04:54;24.70;99.90
9730;DHT22;4904;49.152;11.004;2023-06-22T08:07:21;24.80;99.90
9730;DHT22;4904;49.152;11.004;2023-06-22T08:09:48;25.00;99.90
9730;DHT22;4904;49.152;11.004;2023-06-22T08:12:15;25.10;99.90
9730;DHT22;4904;49.152;11.004;2023-06-22T08:14:43;25.20;99.90
9730;DHT22;4904;49.152;11.004;2023-06-22T08:17:11;25.30;99.90
9730;DHT22;4904;49.152;11.004;2023-06-22T08:19:40;25.40;99.90
9730;DHT22;4904;49.152;11.004;2023-06-22T08:22:08;25.50;99.90
9730;DHT22;4904;49.152;11.004;2023-06-22T08:24:35;25.60;99.90
9730;DHT22;4904;49.152;11.004;2023-06-22T08:27:02;25.70;99.90
9730;DHT22;4904;49.152;11.004;2023-06-22T08:29:29;25.70;99.90
9730;DHT22;4904;49.152;11.004;2023-06-22T08:31:56;25.80;99.90
9730;DHT22;4904;49.152;11.004;2023-06-22T08:34:23;25.90;99.90
9730;DHT22;4904;49.152;11.004;2023-06-22T08:36:53;26.00;99.90
9730;DHT22;4904;49.152;11.004;2023-06-22T08:39:21;26.10;99.90
9730;DHT22;4904;49.152;11.004;2023-06-22T08:41:48;26.20;99.90
9730;DHT22;4904;49.152;11.004;2023-06-22T08:44:18;26.30;99.90
9730;DHT22;4904;49.152;11.004;2023-06-22T08:46:46;26.40;99.90
9730;DHT22;4904;49.152;11.004;2023-06-22T08:49:13;26.40;99.90
9730;DHT22;4904;49.152;11.004;2023-06-22T08:51:40;26.50;99.90
9730;DHT22;4904;49.152;11.004;2023-06-22T08:54:07;26.50;99.90
9730;DHT22;4904;49.152;11.004;2023-06-22T08:56:36;26.60;99.90
9730;DHT22;4904;49.152;11.004;2023-06-22T08:59:02;26.70;99.90
9730;DHT22;4904;49.152;11.004;2023-06-22T09:01:29;26.80;99.90
9730;DHT22;4904;49.152;11.004;2023-06-22T09:03:56;26.90;99.90
9730;DHT22;4904;49.152;11.004;2023-06-22T09:06:25;27.00;99.90
9730;DHT22;4904;49.152;11.004;2023-06-22T09:08:52;27.10;99.90
9730;DHT22;4904;49.152;11.004;2023-06-22T09:11:19;27.20;99.90
9730;DHT22;4904;49.152;11.004;2023-06-22T09:13:47;27.20;99.90
9730;DHT22;4904;49.152;11.004;2023-06-22T09:16:14;27.30;99.90
9730;DHT22;4904;49.152;11.004;2023-06-22T09:18:41;27.30;99.90
9730;DHT22;4904;49.152;11.004;2023-06-22T09:21:09;27.40;99.90
9730;DHT22;4904;49.152;11.004;2023-06-22T09:23:36;27.50;99.90
9730;DHT22;4904;49.152;11.004;2023-06-22T09:26:03;27.70;99.90
9730;DHT22;4904;49.152;11.004;2023-06-22T09:28:30;27.70;99.90
9730;DHT22;4904;49.152;11.004;2023-06-22T09:30:58;27.70;99.90
9730;DHT22;4904;49.152;11.004;2023-06-22T09:33:25;27.80;99.90
9730;DHT22;4904;49.152;11.004;2023-06-22T09:35:52;27.80;99.90
9730;DHT22;4904;49.152;11.004;2023-06-22T09:38:19;27.90;99.90
9730;DHT22;4904;49.152;11.004;2023-06-22T09:40:46;28.00;99.90
9730;DHT22;4904;49.152;11.004;2023-06-22T09:43:13;28.10;99.90
9730;DHT22;4904;49.152;11.004;2023-06-22T09:45:40;28.20;99.90
9730;DHT22;4904;49.152;11.004;2023-06-22T09:48:08;28.30;99.90
9730;DHT22;4904;49.152;11.004;2023-06-22T09:50:35;28.40;99.90
9730;DHT22;4904;49.152;11.004;2023-06-22T09:53:02;28.50;99.90
9730;DHT22;4904;49.152;11.004;2023-06-22T09:55:29;28.60;99.90
9730;DHT22;4904;49.152;11.004;2023-06-22T09:57:56;28.60;99.90
9730;DHT22;4904;49.152;11.004;2023-06-22T10:00:23;28.70;99.90
9730;DHT22;4904;49.152;11.004;2023-06-22T10:02:52;28.70;99.90
9730;DHT22;4904;49.152;11.004;2023-06-22T10:05:20;28.80;99.90
9730;DHT22;4904;49.152;11.004;2023-06-22T10:07:47;28.90;99.90
9730;DHT22;4904;49.152;11.004;2023-06-22T10:10:14;29.00;99.90
9730;DHT22;4904;49.152;11.004;2023-06-22T10:12:44;29.10;99.90
9730;DHT22;4904;49.152;11.004;2023-06-22T10:15:11;29.10;99.90
9730;DHT22;4904;49.152;11.004;2023-06-22T10:17:38;29.30;99.90
9730;DHT22;4904;49.152;11.004;2023-06-22T10:20:06;29.30;99.90
9730;DHT22;4904;49.152;11.004;2023-06-22T10:22:39;29.40;99.90
9730;DHT22;4904;49.152;11.004;2023-06-22T10:25:07;29.50;99.90
9730;DHT22;4904;49.152;11.004;2023-06-22T10:27:34;29.50;99.90
9730;DHT22;4904;49.152;11.004;2023-06-22T10:30:01;29.60;99.90
9730;DHT22;4904;49.152;11.004;2023-06-22T10:32:28;29.60;99.90
9730;DHT22;4904;49.152;11.004;2023-06-22T10:34:54;29.70;99.90
9730;DHT22;4904;49.152;11.004;2023-06-22T10:37:22;29.80;99.90
9730;DHT22;4904;49.152;11.004;2023-06-22T10:39:50;29.80;99.90
9730;DHT22;4904;49.152;11.004;2023-06-22T10:42:17;29.90;99.90
9730;DHT22;4904;49.152;11.004;2023-06-22T10:44:44;29.90;99.90
9730;DHT22;4904;49.152;11.004;2023-06-22T10:47:11;29.90;99.90
9730;DHT22;4904;49.152;11.004;2023-06-22T10:49:38;30.00;99.90
9730;DHT22;4904;49.152;11.004;2023-06-22T10:52:06;30.00;99.90
9730;DHT22;4904;49.152;11.004;2023-06-22T10:54:34;30.10;99.90
9730;DHT22;4904;49.152;11.004;2023-06-22T10:57:03;30.20;99.90
9730;DHT22;4904;49.152;11.004;2023-06-22T10:59:30;30.30;99.90
9730;DHT22;4904;49.152;11.004;2023-06-22T11:01:57;30.30;99.90
9730;DHT22;4904;49.152;11.004;2023-06-22T11:04:25;30.40;99.90
9730;DHT22;4904;49.152;11.004;2023-06-22T11:06:52;30.50;99.90
9730;DHT22;4904;49.152;11.004;2023-06-22T11:09:19;30.60;99.90
9730;DHT22;4904;49.152;11.004;2023-06-22T11:11:46;30.60;99.90
9730;DHT22;4904;49.152;11.004;2023-06-22T11:14:15;30.60;99.90
9730;DHT22;4904;49.152;11.004;2023-06-22T11:16:42;30.70;99.90
9730;DHT22;4904;49.152;11.004;2023-06-22T11:19:09;30.70;99.90
9730;DHT22;4904;49.152;11.004;2023-06-22T11:21:36;30.80;99.90
9730;DHT22;4904;49.152;11.004;2023-06-22T11:24:03;30.90;99.90
9730;DHT22;4904;49.152;11.004;2023-06-22T11:26:30;30.90;99.90
9730;DHT22;4904;49.152;11.004;2023-06-22T11:28:57;31.00;99.90
9730;DHT22;4904;49.152;11.004;2023-06-22T11:31:25;31.10;99.90
9730;DHT22;4904;49.152;11.004;2023-06-22T11:33:53;31.10;99.90
9730;DHT22;4904;49.152;11.004;2023-06-22T11:36:20;31.20;99.90
9730;DHT22;4904;49.152;11.004;2023-06-22T11:38:47;31.40;99.90
9730;DHT22;4904;49.152;11.004;2023-06-22T11:41:14;31.40;99.90
9730;DHT22;4904;49.152;11.004;2023-06-22T11:43:41;31.50;99.90
9730;DHT22;4904;49.152;11.004;2023-06-22T11:46:07;31.50;99.90
9730;DHT22;4904;49.152;11.004;2023-06-22T11:48:36;31.50;99.90
9730;DHT22;4904;49.152;11.004;2023-06-22T11:51:03;31.60;99.90
9730;DHT22;4904;49.152;11.004;2023-06-22T11:53:32;31.50;99.90
9730;DHT22;4904;49.152;11.004;2023-06-22T11:56:00;31.60;99.90
9730;DHT22;4904;49.152;11.004;2023-06-22T11:58:27;31.60;99.90
9730;DHT22;4904;49.152;11.004;2023-06-22T12:00:54;31.80;99.90
9730;DHT22;4904;49.152;11.004;2023-06-22T12:03:21;31.90;99.90
9730;DHT22;4904;49.152;11.004;2023-06-22T12:05:49;32.00;99.90
9730;DHT22;4904;49.152;11.004;2023-06-22T12:08:16;32.10;99.90
9730;DHT22;4904;49.152;11.004;2023-06-22T12:10:44;32.20;99.90
9730;DHT22;4904;49.152;11.004;2023-06-22T12:13:11;32.20;99.90
9730;DHT22;4904;49.152;11.004;2023-06-22T12:15:38;32.20;99.90
9730;DHT22;4904;49.152;11.004;2023-06-22T12:18:05;32.20;99.90
9730;DHT22;4904;49.152;11.004;2023-06-22T12:20:32;32.30;99.90
9730;DHT22;4904;49.152;11.004;2023-06-22T12:23:01;32.30;99.90
9730;DHT22;4904;49.152;11.004;2023-06-22T12:25:27;32.50;99.90
9730;DHT22;4904;49.152;11.004;2023-06-22T12:27:54;32.60;99.90
9730;DHT22;4904;49.152;11.004;2023-06-22T12:30:21;32.60;99.90
9730;DHT22;4904;49.152;11.004;2023-06-22T12:32:48;32.70;99.90
9730;DHT22;4904;49.152;11.004;2023-06-22T12:35:16;32.80;99.90
9730;DHT22;4904;49.152;11.004;2023-06-22T12:37:44;32.80;99.90
9730;DHT22;4904;49.152;11.004;2023-06-22T12:40:12;32.90;99.90
9730;DHT22;4904;49.152;11.004;2023-06-22T12:42:39;32.90;99.90
9730;DHT22;4904;49.152;11.004;2023-06-22T12:45:08;33.00;99.90
9730;DHT22;4904;49.152;11.004;2023-06-22T12:47:35;33.10;99.90
9730;DHT22;4904;49.152;11.004;2023-06-22T12:50:02;33.10;99.90
9730;DHT22;4904;49.152;11.004;2023-06-22T12:52:30;33.10;99.90
9730;DHT22;4904;49.152;11.004;2023-06-22T12:54:57;33.10;99.90
9730;DHT22;4904;49.152;11.004;2023-06-22T12:57:26;33.20;99.90
9730;DHT22;4904;49.152;11.004;2023-06-22T12:59:53;33.30;99.90
9730;DHT22;4904;49.152;11.004;2023-06-22T13:02:20;33.40;99.90
9730;DHT22;4904;49.152;11.004;2023-06-22T13:04:47;33.60;99.90
9730;DHT22;4904;49.152;11.004;2023-06-22T13:07:14;33.80;99.90
9730;DHT22;4904;49.152;11.004;2023-06-22T13:09:41;33.90;99.90
9730;DHT22;4904;49.152;11.004;2023-06-22T13:12:08;34.00;99.90
9730;DHT22;4904;49.152;11.004;2023-06-22T13:14:36;34.10;99.90
9730;DHT22;4904;49.152;11.004;2023-06-22T13:17:04;34.20;99.90
9730;DHT22;4904;49.152;11.004;2023-06-22T13:19:30;34.20;99.90
9730;DHT22;4904;49.152;11.004;2023-06-22T13:21:58;34.20;99.90
9730;DHT22;4904;49.152;11.004;2023-06-22T13:24:25;34.20;99.90
9730;DHT22;4904;49.152;11.004;2023-06-22T13:26:52;34.10;99.90
9730;DHT22;4904;49.152;11.004;2023-06-22T13:29:20;34.10;99.90
9730;DHT22;4904;49.152;11.004;2023-06-22T13:31:48;34.00;99.90
9730;DHT22;4904;49.152;11.004;2023-06-22T13:34:15;34.10;99.90
9730;DHT22;4904;49.152;11.004;2023-06-22T13:36:42;34.30;99.90
9730;DHT22;4904;49.152;11.004;2023-06-22T13:39:09;34.40;99.90
9730;DHT22;4904;49.152;11.004;2023-06-22T13:41:36;34.50;99.90
9730;DHT22;4904;49.152;11.004;2023-06-22T13:44:03;34.60;99.90
9730;DHT22;4904;49.152;11.004;2023-06-22T13:46:30;34.60;99.90
9730;DHT22;4904;49.152;11.004;2023-06-22T13:48:58;34.60;99.90
9730;DHT22;4904;49.152;11.004;2023-06-22T13:51:25;34.60;99.90
9730;DHT22;4904;49.152;11.004;2023-06-22T13:53:53;34.60;99.90
9730;DHT22;4904;49.152;11.004;2023-06-22T13:56:19;34.60;99.90
9730;DHT22;4904;49.152;11.004;2023-06-22T13:58:47;34.60;99.90
9730;DHT22;4904;49.152;11.004;2023-06-22T14:01:14;34.80;99.90
9730;DHT22;4904;49.152;11.004;2023-06-22T14:03:41;35.00;99.90
9730;DHT22;4904;49.152;11.004;2023-06-22T14:06:11;35.10;99.90
9730;DHT22;4904;49.152;11.004;2023-06-22T14:08:38;35.20;99.90
9730;DHT22;4904;49.152;11.004;2023-06-22T14:11:05;35.20;99.90
9730;DHT22;4904;49.152;11.004;2023-06-22T14:13:32;35.20;99.90
9730;DHT22;4904;49.152;11.004;2023-06-22T14:15:59;35.20;99.90
9730;DHT22;4904;49.152;11.004;2023-06-22T14:18:25;35.10;99.90
9730;DHT22;4904;49.152;11.004;2023-06-22T14:20:53;35.10;99.90
9730;DHT22;4904;49.152;11.004;2023-06-22T14:23:22;35.10;99.90
9730;DHT22;4904;49.152;11.004;2023-06-22T14:25:49;35.00;99.90
9730;DHT22;4904;49.152;11.004;2023-06-22T14:28:15;34.90;99.90
9730;DHT22;4904;49.152;11.004;2023-06-22T14:30:43;34.80;99.90
9730;DHT22;4904;49.152;11.004;2023-06-22T14:33:10;34.70;99.90
9730;DHT22;4904;49.152;11.004;2023-06-22T14:35:37;34.60;99.90
9730;DHT22;4904;49.152;11.004;2023-06-22T14:38:04;34.60;99.90
9730;DHT22;4904;49.152;11.004;2023-06-22T14:40:32;34.60;99.90
9730;DHT22;4904;49.152;11.004;2023-06-22T14:42:59;34.60;99.90
9730;DHT22;4904;49.152;11.004;2023-06-22T14:45:26;34.70;99.90
9730;DHT22;4904;49.152;11.004;2023-06-22T14:47:53;34.90;99.90
9730;DHT22;4904;49.152;11.004;2023-06-22T14:50:19;35.00;99.90
9730;DHT22;4904;49.152;11.004;2023-06-22T14:52:46;35.10;99.90
9730;DHT22;4904;49.152;11.004;2023-06-22T14:55:13;35.10;99.90
9730;DHT22;4904;49.152;11.004;2023-06-22T14:57:41;35.20;99.90
9730;DHT22;4904;49.152;11.004;2023-06-22T15:00:09;35.20;99.90
9730;DHT22;4904;49.152;11.004;2023-06-22T15:02:36;35.20;99.90
9730;DHT22;4904;49.152;11.004;2023-06-22T15:05:04;35.20;99.90
9730;DHT22;4904;49.152;11.004;2023-06-22T15:07:31;35.30;99.90
9730;DHT22;4904;49.152;11.004;2023-06-22T15:09:57;35.40;99.90
9730;DHT22;4904;49.152;11.004;2023-06-22T15:12:24;35.50;99.90
9730;DHT22;4904;49.152;11.004;2023-06-22T15:14:53;35.50;99.90
9730;DHT22;4904;49.152;11.004;2023-06-22T15:17:19;35.70;99.90
9730;DHT22;4904;49.152;11.004;2023-06-22T15:19:46;35.70;99.90
9730;DHT22;4904;49.152;11.004;2023-06-22T15:22:13;35.70;99.90
9730;DHT22;4904;49.152;11.004;2023-06-22T15:24:43;35.80;99.90
9730;DHT22;4904;49.152;11.004;2023-06-22T15:27:11;35.90;99.90
9730;DHT22;4904;49.152;11.004;2023-06-22T15:29:38;36.50;99.90
9730;DHT22;4904;49.152;11.004;2023-06-22T15:32:07;37.70;99.90
9730;DHT22;4904;49.152;11.004;2023-06-22T15:34:34;39.20;99.90
9730;DHT22;4904;49.152;11.004;2023-06-22T15:37:01;40.70;99.90
9730;DHT22;4904;49.152;11.004;2023-06-22T15:39:28;42.10;99.90
9730;DHT22;4904;49.152;11.004;2023-06-22T15:41:55;43.20;99.90
9730;DHT22;4904;49.152;11.004;2023-06-22T15:44:23;44.40;99.90
9730;DHT22;4904;49.152;11.004;2023-06-22T15:46:50;45.30;98.10